createdAt,value
2023-04-21T00:00:54.968Z,56.20
2023-04-21T00:03:43.037Z,55.83
2023-04-21T00:06:31.531Z,55.95
2023-04-21T00:09:19.813Z,53.88
2023-04-21T00:12:07.980Z,57.83
2023-04-21T00:14:55.656Z,58.55
2023-04-21T00:17:43.743Z,57.30
2023-04-21T00:20:32.082Z,57.30
2023-04-21T00:23:20.215Z,61.42
2023-04-21T00:26:07.824Z,61.05
2023-04-21T00:28:55.670Z,59.30
2023-04-21T00:31:43.680Z,59.28
2023-04-21T00:34:31.644Z,62.88
2023-04-21T00:37:22.231Z,56.40
2023-04-21T00:40:10.516Z,60.25
2023-04-21T00:42:58.055Z,65.45
2023-04-21T00:45:47.185Z,63.75
2023-04-21T00:48:35.009Z,62.05
2023-04-21T00:51:22.857Z,61.85
2023-04-21T00:54:13.631Z,63.97
2023-04-21T00:57:02.979Z,67.10
2023-04-21T00:59:51.988Z,68.05
2023-04-21T01:02:41.508Z,60.92
2023-04-21T01:05:29.481Z,64.65
2023-04-21T01:08:17.693Z,64.07
2023-04-21T01:11:12.325Z,57.30
2023-04-21T01:13:59.844Z,66.57
2023-04-21T01:16:47.716Z,71.38
2023-04-21T01:19:42.188Z,63.75
2023-04-21T01:22:31.445Z,72.53
2023-04-21T01:25:22.427Z,65.50
2023-04-21T01:28:09.957Z,74.38
2023-04-21T01:30:57.593Z,79.95
2023-04-21T01:33:45.756Z,74.28
2023-04-21T01:36:33.740Z,70.05
2023-04-21T01:39:21.499Z,64.75
2023-04-21T01:42:10.327Z,67.90
2023-04-21T01:44:58.677Z,64.25
2023-04-21T01:47:46.556Z,63.13
2023-04-21T01:50:34.383Z,63.90
2023-04-21T01:53:21.947Z,63.30
2023-04-21T01:56:13.406Z,56.97
2023-04-21T01:59:00.988Z,68.40
2023-04-21T02:01:48.748Z,68.78
2023-04-21T02:04:36.809Z,70.72
2023-04-21T02:07:24.614Z,70.32
2023-04-21T02:10:13.180Z,71.88
2023-04-21T02:13:01.185Z,62.17
2023-04-21T02:15:49.481Z,64.25
2023-04-21T02:18:40.056Z,56.47
2023-04-21T02:21:28.064Z,71.32
2023-04-21T02:24:15.930Z,71.85
2023-04-21T02:27:03.836Z,70.15
2023-04-21T02:29:51.662Z,67.53
2023-04-21T02:32:42.051Z,60.75
2023-04-21T02:35:29.882Z,59.40
2023-04-21T02:38:17.645Z,57.42
2023-04-21T02:41:07.885Z,67.32
2023-04-21T02:43:55.725Z,59.42
2023-04-21T02:46:43.553Z,63.78
2023-04-21T02:49:31.514Z,56.97
2023-04-21T02:52:19.603Z,61.85
2023-04-21T02:55:07.531Z,55.88
2023-04-21T02:57:58.429Z,56.88
2023-04-21T03:00:45.987Z,58.78
2023-04-21T03:03:34.735Z,58.97
2023-04-21T03:06:22.407Z,63.60
2023-04-21T03:09:10.759Z,56.55
2023-04-21T03:11:58.723Z,55.60
2023-04-21T03:14:46.460Z,60.22
2023-04-21T03:17:34.200Z,61.13
2023-04-21T03:20:24.714Z,62.00
2023-04-21T03:23:12.791Z,52.55
2023-04-21T03:26:00.829Z,57.47
2023-04-21T03:28:48.599Z,56.38
2023-04-21T03:31:36.253Z,58.35
2023-04-21T03:34:23.997Z,51.25
2023-04-21T03:37:11.630Z,50.85
2023-04-21T03:39:59.616Z,50.92
2023-04-21T03:42:47.231Z,49.97
2023-04-21T03:45:37.649Z,47.22
2023-04-21T03:48:25.312Z,44.85
2023-04-21T03:51:13.695Z,47.58
2023-04-21T03:54:01.359Z,49.15
2023-04-21T03:56:49.123Z,52.92
2023-04-21T03:59:36.828Z,57.08
2023-04-21T04:02:24.705Z,57.08
2023-04-21T04:05:12.441Z,59.22
2023-04-21T04:08:00.210Z,55.05
2023-04-21T04:10:47.867Z,55.53
2023-04-21T04:13:35.397Z,55.40
2023-04-21T04:16:23.106Z,57.08
2023-04-21T04:19:11.574Z,51.60
2023-04-21T04:22:01.304Z,56.10
2023-04-21T04:24:49.055Z,54.05
2023-04-21T04:27:36.965Z,48.33
2023-04-21T04:30:27.946Z,57.15
2023-04-21T04:33:15.597Z,54.78
2023-04-21T04:36:03.247Z,58.17
2023-04-21T04:38:51.365Z,55.45
2023-04-21T04:41:39.120Z,57.17
2023-04-21T04:44:30.168Z,55.75
2023-04-21T04:47:18.186Z,56.80
2023-04-21T04:50:06.583Z,53.35
2023-04-21T04:52:54.247Z,59.33
2023-04-21T04:55:41.896Z,61.80
2023-04-21T04:58:29.425Z,58.10
2023-04-21T05:01:17.819Z,52.75
2023-04-21T05:04:05.790Z,54.30
2023-04-21T05:06:53.658Z,52.80
2023-04-21T05:09:44.461Z,49.10
2023-04-21T05:12:32.373Z,46.92
2023-04-21T05:15:20.110Z,48.10
2023-04-21T05:18:07.947Z,46.33
2023-04-21T05:20:56.529Z,43.78
2023-04-21T05:23:44.211Z,45.92
2023-04-21T05:26:32.140Z,43.33
2023-04-21T05:29:21.381Z,42.13
2023-04-21T05:32:12.659Z,44.95
2023-04-21T05:35:00.697Z,45.13
2023-04-21T05:37:48.379Z,45.38
2023-04-21T05:40:38.808Z,43.75
2023-04-21T05:43:26.563Z,47.58
2023-04-21T05:46:14.339Z,41.10
2023-04-21T05:49:04.752Z,42.33
2023-04-21T05:51:52.560Z,43.17
2023-04-21T05:54:40.907Z,41.70
2023-04-21T05:57:28.735Z,43.83
2023-04-21T06:00:16.963Z,44.95
2023-04-21T06:03:05.161Z,47.10
2023-04-21T06:05:56.420Z,45.38
2023-04-21T06:08:44.293Z,45.75
2023-04-21T06:11:35.052Z,44.05
2023-04-21T06:14:25.736Z,42.78
2023-04-21T06:17:17.386Z,46.33
2023-04-21T06:20:05.452Z,43.15
2023-04-21T06:22:53.452Z,42.38
2023-04-21T06:25:41.188Z,44.55
2023-04-21T06:28:29.158Z,43.00
2023-04-21T06:31:16.884Z,40.35
2023-04-21T06:34:06.797Z,41.75
2023-04-21T06:36:54.640Z,41.72
2023-04-21T06:39:42.449Z,41.78
2023-04-21T06:42:34.683Z,41.72
2023-04-21T06:45:25.350Z,38.08
2023-04-21T06:48:21.782Z,38.08
2023-04-21T06:51:14.707Z,42.03
2023-04-21T06:54:03.202Z,38.45
2023-04-21T06:56:51.546Z,37.78
2023-04-21T06:59:45.423Z,35.03
2023-04-21T07:02:33.342Z,35.40
2023-04-21T07:05:21.431Z,34.55
2023-04-21T07:08:09.245Z,34.90
2023-04-21T07:10:57.283Z,32.80
2023-04-21T07:13:45.330Z,31.77
2023-04-21T07:16:33.669Z,32.45
2023-04-21T07:19:21.906Z,31.92
2023-04-21T07:22:09.894Z,33.25
2023-04-21T07:24:58.094Z,32.70
2023-04-21T07:27:45.984Z,32.70
2023-04-21T07:30:33.967Z,33.75
2023-04-21T07:33:24.771Z,34.28
2023-04-21T07:36:13.085Z,32.80
2023-04-21T07:39:04.280Z,32.95
2023-04-21T07:41:56.551Z,35.72
2023-04-21T07:44:45.076Z,35.30
2023-04-21T07:47:33.946Z,34.38
2023-04-21T07:50:24.715Z,34.60
2023-04-21T07:53:12.577Z,34.92
2023-04-21T07:56:07.494Z,33.78
2023-04-21T07:58:58.222Z,33.42
2023-04-21T08:01:26.764Z,32.83
2023-04-21T08:04:15.303Z,32.92
2023-04-21T08:07:05.504Z,31.90
2023-04-21T08:09:57.058Z,34.85
2023-04-21T08:12:45.024Z,33.88
2023-04-21T08:15:34.947Z,33.28
2023-04-21T08:18:23.770Z,34.65
2023-04-21T08:21:25.918Z,34.47
2023-04-21T08:24:16.703Z,35.83
2023-04-21T08:27:10.689Z,33.88
2023-04-21T08:30:08.805Z,34.88
2023-04-21T08:33:03.442Z,33.50
2023-04-21T08:36:05.543Z,32.70
2023-04-21T08:39:02.601Z,34.80
2023-04-21T08:41:52.773Z,31.35
2023-04-21T08:44:43.585Z,32.70
2023-04-21T08:47:44.392Z,33.63
2023-04-21T08:50:35.102Z,31.73
2023-04-21T08:53:26.847Z,30.70
2023-04-21T08:56:18.236Z,30.88
2023-04-21T08:59:14.399Z,31.55
2023-04-21T09:02:35.284Z,31.25
2023-04-21T09:05:33.852Z,30.38
2023-04-21T09:08:52.766Z,28.75
2023-04-21T09:11:43.637Z,29.80
2023-04-21T09:14:39.357Z,30.13
2023-04-21T09:17:37.284Z,30.40
2023-04-21T09:20:30.726Z,31.80
2023-04-21T09:23:23.936Z,34.77
2023-04-21T09:26:12.743Z,33.17
2023-04-21T09:29:09.809Z,32.97
2023-04-21T09:31:58.785Z,35.45
2023-04-21T09:35:03.196Z,33.88
2023-04-21T09:37:53.527Z,31.67
2023-04-21T09:40:44.406Z,32.08
2023-04-21T09:43:51.868Z,33.17
2023-04-21T09:47:09.142Z,32.10
2023-04-21T09:50:02.769Z,30.77
2023-04-21T09:53:02.324Z,30.20
2023-04-21T09:55:58.888Z,31.88
2023-04-21T09:58:56.480Z,31.42
2023-04-21T10:01:50.523Z,31.80
2023-04-21T10:04:52.815Z,31.77
2023-04-21T10:07:53.731Z,30.52
2023-04-21T10:10:50.754Z,28.98
2023-04-21T10:17:53.950Z,27.55
2023-04-21T10:21:08.481Z,26.13
2023-04-21T10:27:09.536Z,27.08
2023-04-21T10:30:02.957Z,27.77
2023-04-21T10:36:26.272Z,26.27
2023-04-21T10:42:46.181Z,26.52
2023-04-21T10:45:42.816Z,25.50
2023-04-21T10:48:49.170Z,26.83
2023-04-21T10:52:02.199Z,24.10
2023-04-21T10:54:58.020Z,24.25
2023-04-21T10:57:59.479Z,23.95
2023-04-21T11:00:58.783Z,24.17
2023-04-21T11:03:58.631Z,23.85
2023-04-21T11:07:13.787Z,23.30
2023-04-21T11:10:21.345Z,23.70
2023-04-21T11:13:38.570Z,22.50
2023-04-21T11:19:54.298Z,23.95
2023-04-21T11:22:53.754Z,23.40
2023-04-21T11:25:49.510Z,22.98
2023-04-21T11:28:49.420Z,24.20
2023-04-21T11:31:42.960Z,22.25
2023-04-21T11:34:35.658Z,23.55
2023-04-21T11:37:33.368Z,22.95
2023-04-21T11:40:25.072Z,23.10
2023-04-21T11:43:13.789Z,22.95
2023-04-21T11:46:15.204Z,23.13
2023-04-21T11:49:08.204Z,23.02
2023-04-21T11:52:00.169Z,21.67
2023-04-21T11:54:54.693Z,22.38
2023-04-21T11:57:42.851Z,23.75
2023-04-21T12:00:33.920Z,23.92
2023-04-21T12:03:22.257Z,21.48
2023-04-21T12:06:10.960Z,23.77
2023-04-21T12:09:08.618Z,23.33
2023-04-21T12:12:01.538Z,22.85
2023-04-21T12:14:55.410Z,21.98
2023-04-21T12:17:51.860Z,19.90
2023-04-21T12:20:41.589Z,19.98
2023-04-21T12:23:40.689Z,19.15
2023-04-21T12:26:31.907Z,18.60
2023-04-21T12:29:22.031Z,19.25
2023-04-21T12:32:10.747Z,19.60
2023-04-21T12:35:00.844Z,19.10
2023-04-21T12:37:52.781Z,19.40
2023-04-21T12:40:43.439Z,18.45
2023-04-21T12:43:36.662Z,19.08
2023-04-21T12:46:24.763Z,18.90
2023-04-21T12:49:20.854Z,18.48
2023-04-21T12:52:14.375Z,17.55
2023-04-21T12:55:07.943Z,16.58
2023-04-21T12:57:59.482Z,15.00
2023-04-21T13:00:59.091Z,14.68
2023-04-21T13:03:56.117Z,15.43
2023-04-21T13:06:48.695Z,14.23
2023-04-21T13:09:39.303Z,15.55
2023-04-21T13:12:41.388Z,14.90
2023-04-21T13:15:34.230Z,15.02
2023-04-21T13:18:33.561Z,14.13
2023-04-21T13:22:00.689Z,14.10
2023-04-21T13:24:48.854Z,13.20
2023-04-21T13:27:44.231Z,13.95
2023-04-21T13:30:38.835Z,13.43
2023-04-21T13:33:35.369Z,13.20
2023-04-21T13:36:26.768Z,13.50
2023-04-21T13:39:18.169Z,12.85
2023-04-21T13:42:24.433Z,12.68
2023-04-21T13:45:17.271Z,13.68
2023-04-21T13:48:07.950Z,13.18
2023-04-21T13:50:58.696Z,11.45
2023-04-21T13:54:01.483Z,12.55
2023-04-21T13:57:00.524Z,12.68
2023-04-21T14:00:26.091Z,12.93
2023-04-21T14:03:40.197Z,11.23
2023-04-21T14:06:28.425Z,12.02
2023-04-21T14:09:18.834Z,10.73
2023-04-21T14:12:15.457Z,11.18
2023-04-21T14:15:11.167Z,11.18
2023-04-21T14:18:04.429Z,9.30
2023-04-21T14:24:35.487Z,10.18
2023-04-21T14:28:33.128Z,9.30
2023-04-21T14:31:30.590Z,9.15
2023-04-21T14:34:28.123Z,9.00
2023-04-21T14:37:33.338Z,8.63
2023-04-21T14:47:10.328Z,8.43
2023-04-21T14:49:58.787Z,8.10
2023-04-21T14:52:49.797Z,8.45
2023-04-21T14:55:37.711Z,8.60
2023-04-21T14:58:38.954Z,9.45
2023-04-21T15:01:27.385Z,8.48
2023-04-21T15:04:15.412Z,9.13
2023-04-21T15:07:03.861Z,8.52
2023-04-21T15:09:57.012Z,8.88
2023-04-21T15:13:01.382Z,9.43
2023-04-21T15:19:55.309Z,8.13
2023-04-21T15:23:08.243Z,8.43
2023-04-21T15:26:09.742Z,9.35
2023-04-21T15:29:09.217Z,8.23
2023-04-21T15:32:06.164Z,8.88
2023-04-21T15:35:01.741Z,8.70
2023-04-21T15:38:06.995Z,7.90
2023-04-21T15:41:01.314Z,8.23
2023-04-21T15:44:03.865Z,8.10
2023-04-21T15:46:59.271Z,8.27
2023-04-21T15:49:53.294Z,7.65
2023-04-21T15:55:39.440Z,8.32
2023-04-21T15:58:36.186Z,8.07
2023-04-21T16:04:58.452Z,8.40
2023-04-21T16:07:51.506Z,7.78
2023-04-21T16:10:45.038Z,7.95
2023-04-21T16:13:59.495Z,7.50
2023-04-21T16:20:26.101Z,7.75
2023-04-21T16:23:14.489Z,7.88
2023-04-21T16:26:10.349Z,7.15
2023-04-21T16:28:58.187Z,8.68
2023-04-21T16:31:57.190Z,8.10
2023-04-21T16:34:59.716Z,7.70
2023-04-21T16:37:50.060Z,7.20
2023-04-21T16:40:38.450Z,8.20
2023-04-21T16:47:28.430Z,7.43
2023-04-21T16:53:04.465Z,8.00
2023-04-21T16:55:52.833Z,8.05
2023-04-21T16:58:41.480Z,7.50
2023-04-21T17:01:29.446Z,7.80
2023-04-21T17:04:17.368Z,8.50
2023-04-21T17:07:17.087Z,8.15
2023-04-21T17:10:17.888Z,7.88
2023-04-21T17:13:10.575Z,9.48
2023-04-21T17:16:01.286Z,8.15
2023-04-21T17:19:02.219Z,8.40
2023-04-21T17:22:07.180Z,8.55
2023-04-21T17:25:03.918Z,8.02
2023-04-21T17:28:26.950Z,8.45
2023-04-21T17:31:24.211Z,7.97
2023-04-21T17:34:24.448Z,8.30
2023-04-21T17:37:29.296Z,8.45
2023-04-21T17:40:26.068Z,7.57
2023-04-21T17:46:27.648Z,7.50
2023-04-21T17:49:17.561Z,7.45
2023-04-21T17:52:07.644Z,7.07
2023-04-21T17:55:01.617Z,7.00
2023-04-21T17:58:11.625Z,7.72
2023-04-21T18:01:00.457Z,6.63
2023-04-21T18:03:57.586Z,7.45
2023-04-21T18:07:04.253Z,7.10
2023-04-21T18:10:06.600Z,7.63
2023-04-21T18:12:57.345Z,7.55
2023-04-21T18:15:54.116Z,4.65
2023-04-21T18:18:48.208Z,3.33
2023-04-21T18:21:55.452Z,3.58
2023-04-21T18:24:50.344Z,4.32
2023-04-21T18:27:43.923Z,5.25
2023-04-21T18:33:47.691Z,6.20
2023-04-21T18:36:38.560Z,6.00
2023-04-21T18:39:40.316Z,5.45
2023-04-21T18:42:36.070Z,5.90
2023-04-21T18:45:26.146Z,5.28
2023-04-21T18:48:13.772Z,6.10
2023-04-21T18:51:01.358Z,6.03
2023-04-21T18:53:49.119Z,6.55
2023-04-21T18:56:37.251Z,5.93
2023-04-21T18:59:25.566Z,6.30
2023-04-21T19:02:14.652Z,6.28
2023-04-21T19:05:31.055Z,6.50
2023-04-21T19:08:30.012Z,6.70
2023-04-21T19:11:28.946Z,6.13
2023-04-21T19:14:16.777Z,6.82
2023-04-21T19:17:07.344Z,5.80
2023-04-21T19:19:55.239Z,6.35
2023-04-21T19:22:42.917Z,6.72
2023-04-21T19:25:31.448Z,6.10
2023-04-21T19:28:21.783Z,6.43
2023-04-21T19:31:09.780Z,6.55
2023-04-21T19:33:59.480Z,6.25
2023-04-21T19:36:47.754Z,5.18
2023-04-21T19:39:35.568Z,5.25
2023-04-21T19:42:23.543Z,5.97
2023-04-21T19:45:11.576Z,5.38
2023-04-21T19:47:59.552Z,4.88
2023-04-21T19:50:47.456Z,4.85
2023-04-21T19:53:35.510Z,5.40
2023-04-21T19:56:23.457Z,5.25
2023-04-21T19:59:11.679Z,5.57
2023-04-21T20:02:02.192Z,6.38
2023-04-21T20:04:51.142Z,5.80
2023-04-21T20:07:39.832Z,5.35
2023-04-21T20:10:27.823Z,5.28
2023-04-21T20:13:15.774Z,4.40
2023-04-21T20:16:03.831Z,4.72
2023-04-21T20:18:51.810Z,4.30
2023-04-21T20:21:39.994Z,5.60
2023-04-21T20:24:27.951Z,5.50
2023-04-21T20:27:16.147Z,5.50
2023-04-21T20:30:04.437Z,5.78
2023-04-21T20:32:52.426Z,6.65
2023-04-21T20:35:46.152Z,6.88
2023-04-21T20:41:39.647Z,6.85
2023-04-21T20:44:38.535Z,8.35
2023-04-21T20:47:29.752Z,8.90
2023-04-21T20:50:39.611Z,9.73
2023-04-21T20:53:32.880Z,9.02
2023-04-21T20:56:24.597Z,9.40
2023-04-21T20:59:14.768Z,9.57
2023-04-21T21:02:08.326Z,10.13
2023-04-21T21:08:03.837Z,9.73
2023-04-21T21:10:54.865Z,10.13
2023-04-21T21:13:45.638Z,9.90
2023-04-21T21:16:44.789Z,10.02
2023-04-21T21:19:40.344Z,10.73
2023-04-21T21:22:34.515Z,10.07
2023-04-21T21:25:22.434Z,10.63
2023-04-21T21:28:10.127Z,10.88
2023-04-21T21:30:57.993Z,11.23
2023-04-21T21:33:45.949Z,11.32
2023-04-21T21:36:33.802Z,11.38
2023-04-21T21:39:21.616Z,11.40
2023-04-21T21:42:09.414Z,11.60
2023-04-21T21:44:57.112Z,10.95
2023-04-21T21:47:45.889Z,10.73
2023-04-21T21:50:33.862Z,11.57
2023-04-21T21:53:21.634Z,10.60
2023-04-21T21:56:09.526Z,11.30
2023-04-21T21:58:57.192Z,10.68
2023-04-21T22:01:47.673Z,13.02
2023-04-21T22:04:36.303Z,13.18
2023-04-21T22:07:25.192Z,12.05
2023-04-21T22:10:12.982Z,12.57
2023-04-21T22:13:00.980Z,12.18
2023-04-21T22:15:48.819Z,11.45
2023-04-21T22:18:36.668Z,12.27
2023-04-21T22:21:27.830Z,11.95
2023-04-21T22:24:15.816Z,14.48
2023-04-21T22:27:03.882Z,14.20
2023-04-21T22:29:51.705Z,14.43
2023-04-21T22:32:39.560Z,14.30
2023-04-21T22:35:27.200Z,14.73
2023-04-21T22:38:14.983Z,14.05
2023-04-21T22:41:03.020Z,14.27
2023-04-21T22:43:50.932Z,14.85
2023-04-21T22:46:38.963Z,15.38
2023-04-21T22:49:29.865Z,13.35
2023-04-21T22:52:17.603Z,14.90
2023-04-21T22:55:05.883Z,14.80
2023-04-21T22:57:53.963Z,14.82
2023-04-21T23:00:43.210Z,13.95
2023-04-21T23:03:31.982Z,14.52
2023-04-21T23:06:20.022Z,14.35
2023-04-21T23:09:07.735Z,13.40
2023-04-21T23:11:55.631Z,13.75
2023-04-21T23:14:43.679Z,13.60
2023-04-21T23:17:32.458Z,14.50
2023-04-21T23:20:20.264Z,15.15
2023-04-21T23:23:07.956Z,14.45
2023-04-21T23:25:55.921Z,14.40
2023-04-21T23:28:46.740Z,13.98
2023-04-21T23:31:34.582Z,14.88
2023-04-21T23:34:22.155Z,14.57
2023-04-21T23:37:12.380Z,13.73
2023-04-21T23:40:00.244Z,13.85
2023-04-21T23:42:48.834Z,14.13
2023-04-21T23:45:39.112Z,14.27
2023-04-21T23:48:27.302Z,13.82
2023-04-21T23:51:15.853Z,15.88
2023-04-21T23:54:04.071Z,14.65
2023-04-21T23:56:52.034Z,14.18
2023-04-21T23:59:42.736Z,13.32
